createdAt,value
2024-04-19T00:01:09.023Z,8.10
2024-04-19T00:04:11.209Z,7.77
2024-04-19T00:07:13.179Z,7.60
2024-04-19T00:10:15.277Z,7.90
2024-04-19T00:13:17.465Z,7.77
2024-04-19T00:16:19.388Z,7.20
2024-04-19T00:19:21.991Z,7.80
2024-04-19T00:22:23.860Z,7.53
2024-04-19T00:25:25.748Z,7.77
2024-04-19T00:28:28.555Z,8.10
2024-04-19T00:31:30.531Z,7.30
2024-04-19T00:34:32.700Z,6.53
2024-04-19T00:37:37.656Z,7.30
2024-04-19T00:40:39.614Z,7.20
2024-04-19T00:43:41.484Z,7.60
2024-04-19T00:46:43.407Z,7.43
2024-04-19T00:49:45.793Z,6.13
2024-04-19T00:52:47.772Z,6.37
2024-04-19T00:55:50.628Z,7.07
2024-04-19T00:58:53.064Z,7.40
2024-04-19T01:01:55.800Z,7.70
2024-04-19T01:04:57.711Z,6.60
2024-04-19T01:07:59.628Z,7.20
2024-04-19T01:11:02.048Z,6.50
2024-04-19T01:14:04.424Z,7.07
2024-04-19T01:17:07.532Z,7.13
2024-04-19T01:20:09.801Z,8.10
2024-04-19T01:23:13.473Z,7.40
2024-04-19T01:26:15.527Z,7.50
2024-04-19T01:29:17.373Z,6.90
2024-04-19T01:32:19.117Z,6.93
2024-04-19T01:35:20.859Z,6.23
2024-04-19T01:38:22.592Z,6.70
2024-04-19T01:41:24.335Z,6.80
2024-04-19T01:44:26.137Z,6.60
2024-04-19T01:47:28.003Z,6.77
2024-04-19T01:50:29.808Z,6.47
2024-04-19T01:53:31.672Z,7.50
2024-04-19T01:56:33.484Z,5.87
2024-04-19T01:59:35.231Z,6.10
2024-04-19T02:02:37.078Z,6.23
2024-04-19T02:05:38.932Z,6.10
2024-04-19T02:08:40.696Z,6.60
2024-04-19T02:11:42.655Z,6.40
2024-04-19T02:14:44.447Z,6.17
2024-04-19T02:17:49.954Z,5.63
2024-04-19T02:20:51.945Z,6.13
2024-04-19T02:23:53.748Z,5.87
2024-04-19T02:26:55.509Z,6.10
2024-04-19T02:30:16.185Z,5.60
2024-04-19T02:33:18.197Z,5.40
2024-04-19T02:36:20.057Z,6.00
2024-04-19T02:39:21.838Z,5.73
2024-04-19T02:42:23.663Z,5.37
2024-04-19T02:45:25.481Z,5.13
2024-04-19T02:48:27.239Z,5.57
2024-04-19T02:51:29.053Z,5.27
2024-04-19T02:54:30.917Z,4.70
2024-04-19T02:57:32.847Z,4.87
2024-04-19T03:00:34.815Z,5.17
2024-04-19T03:03:36.878Z,4.13
2024-04-19T03:06:38.738Z,4.67
2024-04-19T03:09:40.671Z,4.50
2024-04-19T03:12:42.485Z,4.00
2024-04-19T03:15:44.288Z,3.93
2024-04-19T03:18:46.160Z,4.33
2024-04-19T03:21:50.232Z,3.80
2024-04-19T03:24:52.231Z,3.60
2024-04-19T03:27:54.267Z,4.00
2024-04-19T03:30:56.075Z,3.80
2024-04-19T03:33:58.480Z,4.60
2024-04-19T03:37:00.359Z,3.87
2024-04-19T03:40:02.421Z,3.70
2024-04-19T03:43:04.395Z,4.10
2024-04-19T03:46:06.126Z,4.57
2024-04-19T03:49:07.978Z,5.00
2024-04-19T03:52:09.751Z,4.67
2024-04-19T03:55:11.549Z,4.17
2024-04-19T03:58:13.555Z,4.60
2024-04-19T04:01:15.450Z,4.20
2024-04-19T04:04:17.289Z,4.40
2024-04-19T04:07:19.145Z,3.87
2024-04-19T04:10:20.966Z,3.23
2024-04-19T04:13:22.777Z,3.50
2024-04-19T04:16:24.593Z,3.57
2024-04-19T04:19:26.452Z,3.80
2024-04-19T04:22:28.210Z,3.87
2024-04-19T04:25:29.978Z,4.10
2024-04-19T04:28:32.129Z,3.50
2024-04-19T04:31:33.917Z,3.97
2024-04-19T04:34:35.748Z,4.20
2024-04-19T04:37:40.198Z,5.40
2024-04-19T04:40:42.108Z,3.97
2024-04-19T04:43:43.843Z,4.23
2024-04-19T04:46:45.728Z,4.93
2024-04-19T04:49:47.526Z,3.83
2024-04-19T04:52:49.406Z,5.07
2024-04-19T04:55:51.190Z,4.50
2024-04-19T04:58:53.088Z,5.50
2024-04-19T05:01:54.903Z,5.23
2024-04-19T05:04:57.363Z,6.00
2024-04-19T05:08:00.005Z,5.87
2024-04-19T05:11:03.243Z,6.40
2024-04-19T05:14:05.956Z,5.33
2024-04-19T05:17:07.786Z,5.30
2024-04-19T05:20:09.743Z,3.80
2024-04-19T05:23:11.508Z,2.93
2024-04-19T05:26:13.235Z,3.57
2024-04-19T05:29:14.967Z,5.17
2024-04-19T05:32:17.063Z,5.73
2024-04-19T05:35:18.878Z,5.30
2024-04-19T05:38:20.604Z,6.13
2024-04-19T05:41:22.369Z,7.33
2024-04-19T05:44:24.149Z,7.80
2024-04-19T05:47:26.242Z,8.80
2024-04-19T05:50:31.428Z,8.50
2024-04-19T05:53:33.168Z,8.53
2024-04-19T05:56:34.895Z,8.93
2024-04-19T05:59:36.686Z,7.60
2024-04-19T06:02:38.553Z,9.93
2024-04-19T06:05:40.339Z,8.90
2024-04-19T06:08:42.202Z,8.70
2024-04-19T06:11:44.011Z,9.93
2024-04-19T06:14:45.751Z,10.10
2024-04-19T06:17:47.659Z,9.73
2024-04-19T06:20:49.932Z,10.50
2024-04-19T06:23:51.777Z,10.13
2024-04-19T06:26:53.543Z,8.77
2024-04-19T06:29:55.282Z,9.40
2024-04-19T06:32:57.093Z,9.60
2024-04-19T06:35:59.325Z,9.23
2024-04-19T06:39:08.681Z,8.20
2024-04-19T06:42:10.465Z,9.03
2024-04-19T06:45:12.222Z,7.33
2024-04-19T06:48:14.317Z,7.80
2024-04-19T06:51:16.363Z,6.60
2024-04-19T06:54:18.142Z,7.07
2024-04-19T06:57:20.333Z,6.53
2024-04-19T07:00:33.346Z,6.23
2024-04-19T07:03:43.479Z,7.03
2024-04-19T07:06:47.763Z,7.30
2024-04-19T07:09:52.448Z,7.23
2024-04-19T07:12:54.462Z,7.80
2024-04-19T07:15:56.215Z,8.20
2024-04-19T07:18:58.079Z,7.40
2024-04-19T07:21:59.892Z,7.43
2024-04-19T07:25:02.401Z,7.50
2024-04-19T07:28:04.403Z,6.43
2024-04-19T07:31:06.281Z,7.03
2024-04-19T07:34:08.001Z,7.90
2024-04-19T07:37:09.843Z,8.17
2024-04-19T07:40:11.675Z,6.43
2024-04-19T07:43:13.497Z,7.90
2024-04-19T07:46:15.326Z,6.60
2024-04-19T07:49:17.465Z,7.40
2024-04-19T07:52:19.819Z,6.23
2024-04-19T07:55:22.294Z,7.03
2024-04-19T07:58:26.277Z,6.87
2024-04-19T08:01:28.204Z,5.90
2024-04-19T08:04:30.085Z,5.50
2024-04-19T08:07:39.756Z,5.00
2024-04-19T08:10:42.446Z,5.03
2024-04-19T08:13:44.428Z,5.03
2024-04-19T08:16:46.283Z,4.90
2024-04-19T08:19:48.775Z,4.80
2024-04-19T08:22:50.576Z,4.93
2024-04-19T08:25:52.959Z,4.63
2024-04-19T08:28:55.715Z,4.90
2024-04-19T08:31:57.592Z,5.27
2024-04-19T08:35:00.073Z,4.30
2024-04-19T08:38:02.229Z,5.50
2024-04-19T08:41:05.098Z,5.40
2024-04-19T08:44:08.001Z,4.90
2024-04-19T08:47:13.680Z,5.10
2024-04-19T08:50:18.841Z,5.33
2024-04-19T08:53:21.506Z,4.83
2024-04-19T08:56:26.491Z,5.93
2024-04-19T08:59:30.969Z,5.37
2024-04-19T09:02:32.811Z,5.90
2024-04-19T09:05:36.471Z,5.97
2024-04-19T09:08:38.929Z,6.20
2024-04-19T09:11:41.989Z,5.97
2024-04-19T09:14:43.775Z,5.73
2024-04-19T09:17:47.639Z,5.97
2024-04-19T09:20:49.543Z,5.93
2024-04-19T09:23:51.276Z,7.00
2024-04-19T09:27:13.975Z,7.03
2024-04-19T09:30:17.868Z,5.80
2024-04-19T09:33:20.583Z,5.70
2024-04-19T09:36:22.743Z,6.17
2024-04-19T09:39:25.963Z,6.27
2024-04-19T09:42:28.520Z,6.70
2024-04-19T09:45:30.736Z,5.77
2024-04-19T09:48:41.560Z,6.97
2024-04-19T09:51:50.524Z,6.57
2024-04-19T09:55:13.707Z,6.20
2024-04-19T09:58:16.601Z,6.00
2024-04-19T10:01:19.869Z,6.23
2024-04-19T10:04:23.272Z,6.20
2024-04-19T10:07:26.835Z,6.80
2024-04-19T10:10:28.612Z,6.57
2024-04-19T10:13:31.846Z,5.47
2024-04-19T10:16:33.919Z,6.13
2024-04-19T10:19:45.039Z,5.97
2024-04-19T10:22:52.646Z,5.67
2024-04-19T10:25:54.413Z,5.10
2024-04-19T10:28:56.935Z,5.13
2024-04-19T10:31:58.902Z,4.87
2024-04-19T10:35:01.513Z,4.23
2024-04-19T10:38:03.313Z,5.20
2024-04-19T10:41:06.138Z,4.37
2024-04-19T10:44:17.164Z,5.20
2024-04-19T10:47:20.356Z,5.10
2024-04-19T10:50:23.223Z,4.50
2024-04-19T10:53:26.203Z,3.50
2024-04-19T10:56:28.020Z,4.40
2024-04-19T10:59:29.802Z,4.20
2024-04-19T11:02:32.246Z,5.00
2024-04-19T11:05:34.076Z,4.10
2024-04-19T11:08:35.876Z,4.43
2024-04-19T11:11:39.597Z,4.30
2024-04-19T11:14:41.548Z,3.80
2024-04-19T11:17:45.157Z,4.37
2024-04-19T11:20:53.509Z,4.10
2024-04-19T11:23:58.946Z,4.40
2024-04-19T11:27:01.191Z,4.50
2024-04-19T11:30:03.601Z,3.80
2024-04-19T11:33:10.468Z,4.17
2024-04-19T11:36:15.488Z,3.90
2024-04-19T11:39:20.308Z,4.53
2024-04-19T11:42:23.469Z,4.07
2024-04-19T11:45:25.409Z,4.70
2024-04-19T11:48:29.079Z,5.00
2024-04-19T11:51:31.888Z,5.00
2024-04-19T11:54:35.001Z,4.93
2024-04-19T11:57:36.944Z,4.53
2024-04-19T12:00:38.782Z,4.77
2024-04-19T12:03:41.371Z,4.40
2024-04-19T12:06:43.360Z,4.60
2024-04-19T12:09:45.368Z,4.57
2024-04-19T12:16:29.587Z,4.70
2024-04-19T12:19:13.761Z,5.23
2024-04-19T12:22:19.328Z,5.23
2024-04-19T12:25:23.021Z,4.73
2024-04-19T12:28:26.546Z,4.63
2024-04-19T12:31:28.638Z,4.83
2024-04-19T12:34:30.381Z,4.70
2024-04-19T12:37:32.165Z,4.33
2024-04-19T12:40:35.800Z,4.60
2024-04-19T12:43:38.091Z,4.57
2024-04-19T12:46:42.971Z,4.63
2024-04-19T12:49:45.578Z,4.23
2024-04-19T12:52:47.349Z,4.63
2024-04-19T12:55:49.239Z,5.20
2024-04-19T12:58:52.413Z,4.40
2024-04-19T13:01:54.191Z,4.83
2024-04-19T13:04:55.980Z,4.60
2024-04-19T13:07:57.766Z,4.90
2024-04-19T13:10:59.551Z,5.13
2024-04-19T13:14:01.725Z,4.13
2024-04-19T13:17:03.680Z,4.57
2024-04-19T13:20:07.089Z,4.70
2024-04-19T13:23:09.514Z,4.87
2024-04-19T13:26:11.758Z,5.13
2024-04-19T13:29:13.726Z,5.77
2024-04-19T13:32:15.748Z,4.90
2024-04-19T13:35:17.830Z,5.43
2024-04-19T13:38:19.881Z,5.20
2024-04-19T13:41:21.608Z,6.13
2024-04-19T13:44:23.422Z,5.30
2024-04-19T13:47:25.517Z,5.23
2024-04-19T13:50:27.403Z,4.70
2024-04-19T13:53:29.249Z,5.10
2024-04-19T13:56:33.825Z,5.97
2024-04-19T13:59:35.543Z,6.60
2024-04-19T14:02:37.321Z,5.97
2024-04-19T14:05:39.187Z,5.47
2024-04-19T14:08:41.009Z,5.70
2024-04-19T14:11:42.938Z,5.30
2024-04-19T14:14:44.832Z,4.13
2024-04-19T14:17:46.760Z,4.80
2024-04-19T14:20:50.865Z,3.43
2024-04-19T14:23:52.672Z,3.33
2024-04-19T14:26:54.939Z,2.80
2024-04-19T14:29:56.919Z,2.23
2024-04-19T14:32:58.778Z,2.60
2024-04-19T14:36:03.533Z,2.50
2024-04-19T14:39:05.296Z,2.30
2024-04-19T14:42:07.122Z,2.47
2024-04-19T14:45:09.291Z,2.43
2024-04-19T14:48:11.929Z,2.20
2024-04-19T14:51:18.735Z,2.07
2024-04-19T14:54:20.556Z,1.60
2024-04-19T14:57:22.674Z,1.43
2024-04-19T15:00:25.736Z,1.30
2024-04-19T15:03:27.789Z,1.40
2024-04-19T15:06:34.892Z,1.80
2024-04-19T15:09:38.506Z,2.00
2024-04-19T15:12:40.266Z,1.43
2024-04-19T15:15:42.197Z,1.30
2024-04-19T15:18:44.031Z,0.67
2024-04-19T15:21:45.883Z,0.70
2024-04-19T15:24:47.966Z,0.90
2024-04-19T15:27:50.327Z,0.60
2024-04-19T15:30:52.342Z,0.80
2024-04-19T15:33:54.109Z,0.70
2024-04-19T15:36:55.959Z,0.70
2024-04-19T15:39:57.763Z,1.10
2024-04-19T15:42:59.622Z,0.83
2024-04-19T15:46:02.900Z,0.93
2024-04-19T15:49:05.457Z,0.77
2024-04-19T15:52:07.245Z,0.90
2024-04-19T15:55:09.059Z,0.90
2024-04-19T15:58:10.942Z,0.90
2024-04-19T16:01:12.741Z,1.03
2024-04-19T16:04:15.212Z,0.90
2024-04-19T16:07:18.434Z,1.93
2024-04-19T16:10:20.216Z,1.57
2024-04-19T16:13:22.572Z,1.30
2024-04-19T16:16:24.409Z,2.43
2024-04-19T16:19:26.279Z,1.53
2024-04-19T16:22:28.116Z,2.70
2024-04-19T16:25:29.927Z,1.00
2024-04-19T16:28:32.834Z,0.90
2024-04-19T16:31:34.588Z,0.70
2024-04-19T16:34:36.387Z,0.73
2024-04-19T16:37:38.255Z,0.60
2024-04-19T16:40:40.375Z,0.80
2024-04-19T16:43:42.157Z,0.80
2024-04-19T16:46:43.991Z,0.60
2024-04-19T16:49:45.745Z,0.60
2024-04-19T16:52:47.585Z,1.00
2024-04-19T16:55:49.677Z,0.70
2024-04-19T16:58:52.061Z,0.83
2024-04-19T17:01:58.106Z,1.10
2024-04-19T17:05:09.044Z,1.00
2024-04-19T17:08:10.819Z,1.00
2024-04-19T17:11:15.595Z,0.80
2024-04-19T17:14:17.966Z,0.97
2024-04-19T17:17:19.947Z,0.80
2024-04-19T17:20:21.892Z,0.97
2024-04-19T17:23:23.761Z,1.00
2024-04-19T17:26:25.505Z,1.20
2024-04-19T17:29:27.449Z,1.07
2024-04-19T17:32:29.346Z,1.33
2024-04-19T17:35:31.214Z,1.07
2024-04-19T17:38:34.334Z,0.97
2024-04-19T17:41:36.114Z,1.07
2024-04-19T17:44:37.880Z,1.03
2024-04-19T17:47:39.870Z,1.07
2024-04-19T17:50:41.721Z,1.70
2024-04-19T17:53:44.519Z,1.47
2024-04-19T17:56:46.563Z,2.17
2024-04-19T17:59:48.423Z,1.30
2024-04-19T18:02:53.571Z,2.07
2024-04-19T18:05:56.602Z,1.20
2024-04-19T18:08:58.448Z,0.87
2024-04-19T18:12:00.261Z,0.93
2024-04-19T18:15:02.937Z,1.03
2024-04-19T18:18:05.280Z,0.90
2024-04-19T18:21:09.095Z,1.20
2024-04-19T18:24:10.951Z,1.10
2024-04-19T18:27:12.794Z,1.13
2024-04-19T18:30:17.020Z,1.57
2024-04-19T18:33:20.148Z,1.40
2024-04-19T18:36:22.107Z,1.10
2024-04-19T18:39:24.224Z,1.40
2024-04-19T18:42:26.061Z,1.60
2024-04-19T18:45:27.954Z,1.57
2024-04-19T18:48:30.110Z,1.30
2024-04-19T18:51:32.202Z,1.57
2024-04-19T18:54:33.957Z,1.40
2024-04-19T18:57:36.673Z,1.60
2024-04-19T19:00:38.536Z,1.50
2024-04-19T19:03:43.743Z,1.80
2024-04-19T19:06:45.596Z,1.77
2024-04-19T19:09:50.380Z,1.70
2024-04-19T19:12:56.752Z,1.70
2024-04-19T19:15:59.800Z,1.70
2024-04-19T19:19:02.258Z,1.70
2024-04-19T19:22:04.376Z,2.27
2024-04-19T19:25:06.677Z,2.60
2024-04-19T19:28:08.594Z,2.27
2024-04-19T19:31:10.424Z,33.13
2024-04-19T19:34:12.277Z,3.00
2024-04-19T19:37:14.019Z,2.13
2024-04-19T19:40:16.709Z,2.30
2024-04-19T19:43:21.537Z,1.90
2024-04-19T19:46:23.939Z,2.20
2024-04-19T19:49:25.713Z,1.97
2024-04-19T19:52:27.428Z,2.10
2024-04-19T19:55:29.214Z,2.83
2024-04-19T19:58:31.039Z,3.80
2024-04-19T20:01:51.617Z,6.53
2024-04-19T20:05:12.246Z,1.80
2024-04-19T20:08:14.608Z,2.30
2024-04-19T20:11:16.699Z,1.90
2024-04-19T20:14:19.121Z,2.50
2024-04-19T20:17:21.014Z,1.77
2024-04-19T20:20:22.974Z,1.93
2024-04-19T20:23:24.744Z,2.30
2024-04-19T20:26:26.675Z,2.43
2024-04-19T20:29:30.362Z,1.60
2024-04-19T20:32:33.728Z,2.10
2024-04-19T20:35:35.701Z,3.13
2024-04-19T20:38:39.643Z,1.83
2024-04-19T20:41:41.539Z,1.97
2024-04-19T20:44:44.936Z,1.70
2024-04-19T20:47:46.782Z,2.03
2024-04-19T20:50:51.312Z,2.23
2024-04-19T20:53:53.096Z,1.83
2024-04-19T20:56:54.859Z,2.07
2024-04-19T20:59:56.649Z,1.80
2024-04-19T21:02:58.440Z,1.60
2024-04-19T21:06:00.814Z,1.60
2024-04-19T21:09:05.270Z,1.53
2024-04-19T21:12:07.641Z,1.60
2024-04-19T21:15:10.463Z,1.50
2024-04-19T21:18:12.277Z,1.83
2024-04-19T21:21:14.724Z,1.73
2024-04-19T21:24:16.666Z,2.40
2024-04-19T21:27:20.925Z,1.43
2024-04-19T21:30:22.859Z,1.63
2024-04-19T21:33:24.614Z,1.43
2024-04-19T21:36:30.729Z,2.03
2024-04-19T21:39:32.753Z,1.80
2024-04-19T21:42:34.512Z,1.80
2024-04-19T21:45:39.117Z,1.60
2024-04-19T21:48:40.923Z,2.17
2024-04-19T21:51:42.909Z,1.53
2024-04-19T21:54:44.768Z,1.57
2024-04-19T21:57:46.731Z,1.80
2024-04-19T22:00:48.624Z,1.50
2024-04-19T22:03:50.454Z,1.47
2024-04-19T22:06:52.313Z,1.83
2024-04-19T22:09:55.656Z,1.90
2024-04-19T22:12:57.615Z,1.67
2024-04-19T22:16:07.112Z,1.70
2024-04-19T22:19:09.050Z,1.40
2024-04-19T22:22:13.971Z,1.77
2024-04-19T22:25:15.829Z,1.50
2024-04-19T22:28:17.650Z,1.70
2024-04-19T22:31:19.455Z,1.63
2024-04-19T22:34:21.243Z,1.33
2024-04-19T22:37:23.053Z,1.30
2024-04-19T22:40:24.856Z,1.43
2024-04-19T22:43:28.764Z,1.40
2024-04-19T22:46:32.820Z,2.10
2024-04-19T22:49:34.623Z,1.40
2024-04-19T22:52:36.387Z,1.20
2024-04-19T22:55:38.909Z,1.23
2024-04-19T22:58:40.743Z,1.30
2024-04-19T23:01:43.197Z,1.80
2024-04-19T23:04:49.175Z,1.60
2024-04-19T23:07:51.130Z,1.27
2024-04-19T23:10:55.361Z,1.70
2024-04-19T23:13:57.294Z,1.70
2024-04-19T23:17:00.534Z,1.43
2024-04-19T23:20:02.632Z,1.50
2024-04-19T23:23:04.862Z,1.93
2024-04-19T23:26:07.707Z,2.03
2024-04-19T23:29:09.534Z,1.60
2024-04-19T23:32:11.383Z,1.90
2024-04-19T23:35:14.182Z,2.00
2024-04-19T23:38:15.980Z,1.80
2024-04-19T23:41:18.581Z,2.03
2024-04-19T23:44:20.286Z,1.73
2024-04-19T23:47:22.387Z,2.00
2024-04-19T23:50:27.286Z,2.00
2024-04-19T23:53:29.059Z,2.00
2024-04-19T23:56:31.459Z,2.00
2024-04-19T23:59:33.308Z,1.80
